Ogallala, NE (69153)

5:19 PM MDT on July 03, 2015 (GMT -0600)
KNEOGALL1 | | Change Station
CLOSE
Current Station
Personal Weather Station
Location: Ogallala, NE
Elevation: 3243 ft
Nearby Weather Stations
Active Advisory: Flood Advisory

Elev 3243 ft 41.13 °N, 101.71 °W | Updated 3 minutes ago

Clear
Clear
83.6 °F
Feels Like 82 °F
N
2.0
Wind Variable Wind from NE

Today
High -- | Low -- °F
--% Chance of Precip.
Yesterday
High -- | Low -- °F
Precip. -- in
5:18 AM 8:22 PM
Waning Gibbous, 95% visible
Pressure 30.01 in
Visibility 10.0 miles
Clouds Clear
Heat Index 82 °F
Dew Point 54 °F
Humidity 36%
Rainfall 0.00 in
Snow Depth Not available.
UV 5 out of 12
Pollen 4.60 out of 12
Air Quality Not available.
Flu Activity Not available.
METAR KOGA 032255Z AUTO 11004KT 10SM CLR 28/14 A3001 RMK AO2 T02820138

More Conditions Fewer Conditions

Pressure 30.01 in
Visibility 10.0 miles
Clouds Clear
Heat Index 82 °F
Dew Point 54 °F
Humidity 36%
Rainfall 0.00 in
Snow Depth Not available.
UV 5 out of 12
Pollen 4.60 out of 12
Air Quality Not available.
Flu Activity Not available.
METAR KOGA 032255Z AUTO 11004KT 10SM CLR 28/14 A3001 RMK AO2 T02820138

More Conditions Fewer Conditions

10-Day Weather Forecast

×

Almanac

Astronomy

Jul. 03, 2015 Rise Set
Actual Time
Civil Twilight
Nautical Twilight
Astronomical Twilight
Moon
Length of Visible Light
Length of Day
Tomorrow will be .
, % of the Moon is Illuminated

Today's Extremes

State Highs State Lows

Community

WunderPhotos

Upload Photos

1,834,819 photos uploaded!

WunderBlogs® & News

Nearby

Air Quality

  Air Quality AQ Index Pollutant
Not available.

Snow Depth

Station Depth Elevation

Earthquake Activity

City Distance Mag. Time & Date
Minimum magnitude displayed is 2.5.

Coastal Water Temperatures

Place Temperature

Stations

Nearby Weather Stations

Station Location Temp. Windchill Dew Point Humidity Wind Precip. Elev Updated Type
                   
Flood Advisory
Statement as of 9:39 AM MDT on July 03, 2015

The Flood Advisory is extended for
the North Platte river at Lewellen.
* Until Tuesday afternoon.
* At 7:00 am Friday the stage was 7.4 feet.
* Flood stage is 7.5 feet.
* Forecast... the river will fall to 7.2 feet by Tuesday afternoon.
* Impact... at 7.5 feet... minor flood stage. Overflow and high water
table levels will cause seepage and flooding of basements and crawl
spaces near and along the river.


Lat... Lon 4136 10235 4140 10235 4130 10196 4126 10197